KBVI

Details ICAO KBVI
Name BEAVER CO
Region United States
Timezone America/New_York (UTC-4.0)
Plans Departing 12
Arriving 3
Stats Elevation 1,253 ft / 382 m (AMSL)
Location 40.772470° -80.391430°
Runways 1
Magnetic Variation 9.113° W
Sunrise 2018-05-26 09:57:05 UTC / 2018-05-26 05:57:05 Local
Sunset 2018-05-27 00:43:03 UTC / 2018-05-26 20:43:03 Local
Advertisement - Login to hide

Runways

ID Width Length Bearing (true) Bearing (mag) Surface Threshold Offset Overrun Length
10 100 ft / 30 m 4,490 ft / 1,369 m 93.84° 102.95° Asphalt 0 ft / 0 m 0 ft / 0 m
28 100 ft / 30 m 4,490 ft / 1,369 m 273.85° 282.96° Asphalt 0 ft / 0 m 0 ft / 0 m

Map

Weather


0- 5 10 15 20 25 30 35+ Temperature / ° C

Clouds and Precipitation
Forecast for 2018-05-26 18:00 UTC. Updated 38 minutes ago

Ground ~20,000 ft ~40,000 ft Winds

METAR

KBVI 261647Z 31004KT 10SM SCT090 27/16 A2989 RMK RUNWAY 28 IN USE

TAF

TAF KBVI 261720Z 2618/2718 24005KT P6SM BKN050 FM270000 24007KT P6SM VCTS OVC035CB FM270600 00000KT P6SM VCSH BKN040 FM271000 VRB03KT 3SM BR BKN025 FM271400 VRB03KT P6SM VCSH BKN012 FM271600 VRB03KT P6SM VCSH BKN015

Frequencies

Recorded 118.35 MHz ATIS
Clearance 124.85 MHz PITTSBURGH CLNC DEL
Tower 120.30 MHz TWR
Unicom 120.30 MHz CTAF
Ground 121.80 MHz GND
Approach 124.75 MHz PITTSBURGH APP/DEP
Warning: Do not use this data for real-world aviation or navigation. No guarantee of current accuracy is given.